Terminal Aerodrome Forecast
Issued by NWS

Home | Current Version | Previous Version | Graphics & Text | Print | Product List | Glossary On
Versions: 1 2 3 4 5 6 7 8 9 10 11 12 13 14 15 16 17
365
FTUS43 KLSX 270723 AAA
TAFSUS
TAF AMD
KSUS 270723Z 2707/2806 00000KT 3SM BR FEW200
      TEMPO 2707/2711 1SM BR FEW002
     FM271300 VRB03KT P6SM FEW250
     FM271600 11005KT P6SM FEW050=

USA.gov is the U.S. government's official web portal to all federal, state and local government web resources and services.